sensor_id;sensor_type;location;lat;lon;timestamp;pressure;altitude;pressure_sealevel;temperature;humidity
10014;BME280;45684;48.358;10.746;2023-08-07T00:02:16;95901.94;;;13.71;nan
10014;BME280;45684;48.358;10.746;2023-08-07T00:04:44;95904.41;;;13.64;nan
10014;BME280;45684;48.358;10.746;2023-08-07T00:07:12;95906.56;;;13.71;nan
10014;BME280;45684;48.358;10.746;2023-08-07T00:09:40;95893.00;;;13.59;nan
10014;BME280;45684;48.358;10.746;2023-08-07T00:12:08;95906.34;;;13.64;nan
10014;BME280;45684;48.358;10.746;2023-08-07T00:14:36;95902.06;;;13.50;nan
10014;BME280;45684;48.358;10.746;2023-08-07T00:17:04;95902.84;;;13.63;nan
10014;BME280;45684;48.358;10.746;2023-08-07T00:19:34;95906.22;;;13.60;nan
10014;BME280;45684;48.358;10.746;2023-08-07T00:22:02;95900.59;;;13.53;nan
10014;BME280;45684;48.358;10.746;2023-08-07T00:24:30;95906.16;;;13.44;nan
10014;BME280;45684;48.358;10.746;2023-08-07T00:26:58;95911.59;;;13.44;nan
10014;BME280;45684;48.358;10.746;2023-08-07T00:29:26;95904.66;;;13.59;nan
10014;BME280;45684;48.358;10.746;2023-08-07T00:31:54;95904.31;;;13.61;nan
10014;BME280;45684;48.358;10.746;2023-08-07T00:34:22;95908.97;;;13.48;nan
10014;BME280;45684;48.358;10.746;2023-08-07T00:36:51;95890.28;;;13.46;nan
10014;BME280;45684;48.358;10.746;2023-08-07T00:39:19;95900.47;;;13.49;nan
10014;BME280;45684;48.358;10.746;2023-08-07T00:41:47;95893.78;;;13.47;nan
10014;BME280;45684;48.358;10.746;2023-08-07T00:44:16;95895.16;;;13.53;nan
10014;BME280;45684;48.358;10.746;2023-08-07T00:46:44;95896.50;;;13.59;nan
10014;BME280;45684;48.358;10.746;2023-08-07T00:49:12;95890.97;;;13.56;nan
10014;BME280;45684;48.358;10.746;2023-08-07T00:51:40;95899.47;;;13.54;nan
10014;BME280;45684;48.358;10.746;2023-08-07T00:54:12;95898.56;;;13.50;nan
10014;BME280;45684;48.358;10.746;2023-08-07T00:56:43;95901.03;;;13.43;nan
10014;BME280;45684;48.358;10.746;2023-08-07T00:59:12;95894.38;;;13.40;nan
10014;BME280;45684;48.358;10.746;2023-08-07T01:01:40;95903.19;;;13.49;nan
10014;BME280;45684;48.358;10.746;2023-08-07T01:04:08;95902.38;;;13.61;nan
10014;BME280;45684;48.358;10.746;2023-08-07T01:06:36;95907.13;;;13.52;nan
10014;BME280;45684;48.358;10.746;2023-08-07T01:09:06;95901.50;;;13.57;nan
10014;BME280;45684;48.358;10.746;2023-08-07T01:11:39;95908.28;;;13.51;nan
10014;BME280;45684;48.358;10.746;2023-08-07T01:14:18;95905.56;;;13.51;nan
10014;BME280;45684;48.358;10.746;2023-08-07T01:16:52;95913.59;;;13.60;nan
10014;BME280;45684;48.358;10.746;2023-08-07T01:19:25;95901.81;;;13.56;nan
10014;BME280;45684;48.358;10.746;2023-08-07T01:22:05;95906.69;;;13.62;nan
10014;BME280;45684;48.358;10.746;2023-08-07T01:24:34;95910.09;;;13.71;nan
10014;BME280;45684;48.358;10.746;2023-08-07T01:27:10;95911.91;;;13.67;nan
10014;BME280;45684;48.358;10.746;2023-08-07T01:29:43;95915.84;;;13.70;nan
10014;BME280;45684;48.358;10.746;2023-08-07T01:32:15;95912.09;;;13.74;nan
10014;BME280;45684;48.358;10.746;2023-08-07T01:34:47;95918.66;;;13.73;nan
10014;BME280;45684;48.358;10.746;2023-08-07T01:37:18;95916.84;;;13.77;nan
10014;BME280;45684;48.358;10.746;2023-08-07T01:39:48;95920.25;;;13.74;nan
10014;BME280;45684;48.358;10.746;2023-08-07T01:42:17;95921.03;;;13.87;nan
10014;BME280;45684;48.358;10.746;2023-08-07T01:44:45;95924.41;;;13.84;nan
10014;BME280;45684;48.358;10.746;2023-08-07T01:47:13;95926.91;;;13.89;nan
10014;BME280;45684;48.358;10.746;2023-08-07T01:49:41;95927.47;;;13.95;nan
10014;BME280;45684;48.358;10.746;2023-08-07T01:52:09;95936.53;;;13.87;nan
10014;BME280;45684;48.358;10.746;2023-08-07T01:54:39;95924.53;;;13.88;nan
10014;BME280;45684;48.358;10.746;2023-08-07T01:57:07;95933.34;;;13.97;nan
10014;BME280;45684;48.358;10.746;2023-08-07T01:59:35;95931.13;;;13.87;nan
10014;BME280;45684;48.358;10.746;2023-08-07T02:02:03;95935.41;;;13.88;nan
10014;BME280;45684;48.358;10.746;2023-08-07T02:04:31;95940.16;;;13.91;nan
10014;BME280;45684;48.358;10.746;2023-08-07T02:06:59;95940.06;;;13.87;nan
10014;BME280;45684;48.358;10.746;2023-08-07T02:09:27;95946.75;;;13.90;nan
10014;BME280;45684;48.358;10.746;2023-08-07T02:11:56;95953.28;;;13.89;nan
10014;BME280;45684;48.358;10.746;2023-08-07T02:14:24;95943.69;;;13.79;nan
10014;BME280;45684;48.358;10.746;2023-08-07T02:16:52;95941.75;;;13.92;nan
10014;BME280;45684;48.358;10.746;2023-08-07T02:19:20;95949.66;;;13.97;nan
10014;BME280;45684;48.358;10.746;2023-08-07T02:21:48;95941.31;;;13.90;nan
10014;BME280;45684;48.358;10.746;2023-08-07T02:24:16;95946.16;;;13.84;nan
10014;BME280;45684;48.358;10.746;2023-08-07T02:26:44;95954.78;;;13.86;nan
10014;BME280;45684;48.358;10.746;2023-08-07T02:29:14;95956.72;;;13.86;nan
10014;BME280;45684;48.358;10.746;2023-08-07T02:31:41;95952.38;;;13.85;nan
10014;BME280;45684;48.358;10.746;2023-08-07T02:34:09;95951.03;;;13.91;nan
10014;BME280;45684;48.358;10.746;2023-08-07T02:36:37;95958.06;;;13.92;nan
10014;BME280;45684;48.358;10.746;2023-08-07T02:39:06;95952.38;;;13.85;nan
10014;BME280;45684;48.358;10.746;2023-08-07T02:41:34;95962.47;;;13.84;nan
10014;BME280;45684;48.358;10.746;2023-08-07T02:44:02;95958.41;;;13.90;nan
10014;BME280;45684;48.358;10.746;2023-08-07T02:46:31;95966.88;;;13.89;nan
10014;BME280;45684;48.358;10.746;2023-08-07T02:49:01;95969.16;;;13.87;nan
10014;BME280;45684;48.358;10.746;2023-08-07T02:51:28;95959.31;;;13.82;nan
10014;BME280;45684;48.358;10.746;2023-08-07T02:53:56;95972.31;;;13.89;nan
10014;BME280;45684;48.358;10.746;2023-08-07T02:56:24;95965.66;;;13.86;nan
10014;BME280;45684;48.358;10.746;2023-08-07T02:58:52;95963.38;;;13.88;nan
10014;BME280;45684;48.358;10.746;2023-08-07T03:01:20;95965.78;;;13.90;nan
10014;BME280;45684;48.358;10.746;2023-08-07T03:03:49;95962.13;;;13.98;nan
10014;BME280;45684;48.358;10.746;2023-08-07T03:06:17;95959.63;;;13.93;nan
10014;BME280;45684;48.358;10.746;2023-08-07T03:08:45;95959.41;;;13.98;nan
10014;BME280;45684;48.358;10.746;2023-08-07T03:11:13;95970.50;;;13.93;nan
10014;BME280;45684;48.358;10.746;2023-08-07T03:13:41;95964.84;;;13.98;nan
10014;BME280;45684;48.358;10.746;2023-08-07T03:16:11;95976.19;;;14.00;nan
10014;BME280;45684;48.358;10.746;2023-08-07T03:18:39;95964.16;;;14.01;nan
10014;BME280;45684;48.358;10.746;2023-08-07T03:21:08;95966.88;;;14.01;nan
10014;BME280;45684;48.358;10.746;2023-08-07T03:23:36;95970.72;;;14.00;nan
10014;BME280;45684;48.358;10.746;2023-08-07T03:26:06;95972.19;;;13.97;nan
10014;BME280;45684;48.358;10.746;2023-08-07T03:28:44;95982.97;;;13.94;nan
10014;BME280;45684;48.358;10.746;2023-08-07T03:31:14;95979.22;;;13.98;nan
10014;BME280;45684;48.358;10.746;2023-08-07T03:33:42;95977.53;;;13.94;nan
10014;BME280;45684;48.358;10.746;2023-08-07T03:36:13;95976.06;;;13.96;nan
10014;BME280;45684;48.358;10.746;2023-08-07T03:38:41;95973.47;;;13.88;nan
10014;BME280;45684;48.358;10.746;2023-08-07T03:41:09;95985.91;;;13.89;nan
10014;BME280;45684;48.358;10.746;2023-08-07T03:43:40;96001.78;;;13.99;nan
10014;BME280;45684;48.358;10.746;2023-08-07T03:46:09;95992.03;;;13.98;nan
10014;BME280;45684;48.358;10.746;2023-08-07T03:48:37;96009.28;;;13.90;nan
10014;BME280;45684;48.358;10.746;2023-08-07T03:51:07;96003.69;;;13.98;nan
10014;BME280;45684;48.358;10.746;2023-08-07T03:53:44;96009.47;;;13.97;nan
10014;BME280;45684;48.358;10.746;2023-08-07T03:56:13;96017.97;;;13.95;nan
10014;BME280;45684;48.358;10.746;2023-08-07T03:58:41;96017.75;;;14.00;nan
10014;BME280;45684;48.358;10.746;2023-08-07T04:01:09;96019.09;;;14.07;nan
10014;BME280;45684;48.358;10.746;2023-08-07T04:03:38;96023.31;;;14.04;nan
10014;BME280;45684;48.358;10.746;2023-08-07T04:06:06;96021.81;;;14.07;nan
10014;BME280;45684;48.358;10.746;2023-08-07T04:08:34;96035.75;;;14.05;nan
10014;BME280;45684;48.358;10.746;2023-08-07T04:11:04;96032.91;;;14.01;nan
10014;BME280;45684;48.358;10.746;2023-08-07T04:13:34;96030.44;;;13.96;nan
10014;BME280;45684;48.358;10.746;2023-08-07T04:16:03;96037.13;;;13.99;nan
10014;BME280;45684;48.358;10.746;2023-08-07T04:18:33;96039.16;;;14.02;nan
10014;BME280;45684;48.358;10.746;2023-08-07T04:21:01;96044.94;;;14.00;nan
10014;BME280;45684;48.358;10.746;2023-08-07T04:23:31;96037.22;;;14.02;nan
10014;BME280;45684;48.358;10.746;2023-08-07T04:25:59;96038.00;;;14.03;nan
10014;BME280;45684;48.358;10.746;2023-08-07T04:28:29;96036.53;;;13.93;nan
10014;BME280;45684;48.358;10.746;2023-08-07T04:30:57;96043.91;;;13.93;nan
10014;BME280;45684;48.358;10.746;2023-08-07T04:33:25;96038.03;;;13.91;nan
10014;BME280;45684;48.358;10.746;2023-08-07T04:35:53;96046.63;;;13.93;nan
10014;BME280;45684;48.358;10.746;2023-08-07T04:38:21;96042.56;;;13.87;nan
10014;BME280;45684;48.358;10.746;2023-08-07T04:40:50;96043.94;;;13.81;nan
10014;BME280;45684;48.358;10.746;2023-08-07T04:43:18;96045.97;;;13.71;nan
10014;BME280;45684;48.358;10.746;2023-08-07T04:45:48;96047.31;;;13.77;nan
10014;BME280;45684;48.358;10.746;2023-08-07T04:48:16;96055.00;;;13.75;nan
10014;BME280;45684;48.358;10.746;2023-08-07T04:50:47;96048.22;;;13.82;nan
10014;BME280;45684;48.358;10.746;2023-08-07T04:53:15;96058.63;;;13.79;nan
10014;BME280;45684;48.358;10.746;2023-08-07T04:55:43;96049.81;;;13.95;nan
10014;BME280;45684;48.358;10.746;2023-08-07T04:58:11;96055.91;;;13.92;nan
10014;BME280;45684;48.358;10.746;2023-08-07T05:00:38;96057.50;;;13.93;nan
10014;BME280;45684;48.358;10.746;2023-08-07T05:03:08;96063.72;;;13.93;nan
10014;BME280;45684;48.358;10.746;2023-08-07T05:05:36;96061.69;;;14.02;nan
10014;BME280;45684;48.358;10.746;2023-08-07T05:08:04;96063.97;;;14.00;nan
10014;BME280;45684;48.358;10.746;2023-08-07T05:10:32;96066.44;;;14.06;nan
10014;BME280;45684;48.358;10.746;2023-08-07T05:13:00;96069.53;;;14.04;nan
10014;BME280;45684;48.358;10.746;2023-08-07T05:15:28;96061.59;;;13.99;nan
10014;BME280;45684;48.358;10.746;2023-08-07T05:17:57;96060.22;;;13.93;nan
10014;BME280;45684;48.358;10.746;2023-08-07T05:20:27;96068.38;;;13.93;nan
10014;BME280;45684;48.358;10.746;2023-08-07T05:22:55;96073.59;;;13.86;nan
10014;BME280;45684;48.358;10.746;2023-08-07T05:25:23;96064.19;;;13.95;nan
10014;BME280;45684;48.358;10.746;2023-08-07T05:27:51;96077.69;;;14.04;nan
10014;BME280;45684;48.358;10.746;2023-08-07T05:30:19;96079.47;;;14.12;nan
10014;BME280;45684;48.358;10.746;2023-08-07T05:32:47;96073.78;;;14.29;nan
10014;BME280;45684;48.358;10.746;2023-08-07T05:35:14;96080.94;;;14.34;nan
10014;BME280;45684;48.358;10.746;2023-08-07T05:37:44;96082.75;;;14.30;nan
10014;BME280;45684;48.358;10.746;2023-08-07T05:40:12;96081.72;;;14.35;nan
10014;BME280;45684;48.358;10.746;2023-08-07T05:42:40;96080.25;;;14.25;nan
10014;BME280;45684;48.358;10.746;2023-08-07T05:45:09;96087.28;;;14.26;nan
10014;BME280;45684;48.358;10.746;2023-08-07T05:47:37;96095.91;;;14.28;nan
10014;BME280;45684;48.358;10.746;2023-08-07T05:50:06;96095.56;;;14.29;nan
10014;BME280;45684;48.358;10.746;2023-08-07T05:52:34;96091.47;;;14.36;nan
10014;BME280;45684;48.358;10.746;2023-08-07T05:55:05;96088.50;;;14.41;nan
10014;BME280;45684;48.358;10.746;2023-08-07T05:57:34;96088.75;;;14.48;nan
10014;BME280;45684;48.358;10.746;2023-08-07T06:00:03;96089.66;;;14.52;nan
10014;BME280;45684;48.358;10.746;2023-08-07T06:02:37;96100.53;;;14.64;nan
10014;BME280;45684;48.358;10.746;2023-08-07T06:05:06;96096.44;;;14.70;nan
10014;BME280;45684;48.358;10.746;2023-08-07T06:07:34;96091.88;;;14.74;nan
10014;BME280;45684;48.358;10.746;2023-08-07T06:10:04;96099.44;;;14.81;nan
10014;BME280;45684;48.358;10.746;2023-08-07T06:12:32;96108.75;;;14.92;nan
10014;BME280;45684;48.358;10.746;2023-08-07T06:15:00;96113.03;;;14.93;nan
10014;BME280;45684;48.358;10.746;2023-08-07T06:17:28;96103.19;;;14.89;nan
10014;BME280;45684;48.358;10.746;2023-08-07T06:19:56;96113.63;;;14.87;nan
10014;BME280;45684;48.358;10.746;2023-08-07T06:22:24;96109.84;;;14.91;nan
10014;BME280;45684;48.358;10.746;2023-08-07T06:24:52;96115.03;;;15.09;nan
10014;BME280;45684;48.358;10.746;2023-08-07T06:27:22;96108.81;;;15.24;nan
10014;BME280;45684;48.358;10.746;2023-08-07T06:29:50;96107.53;;;15.34;nan
10014;BME280;45684;48.358;10.746;2023-08-07T06:32:17;96109.56;;;15.37;nan
10014;BME280;45684;48.358;10.746;2023-08-07T06:34:45;96109.22;;;15.38;nan
10014;BME280;45684;48.358;10.746;2023-08-07T06:37:14;96108.72;;;15.48;nan
10014;BME280;45684;48.358;10.746;2023-08-07T06:39:41;96110.56;;;15.60;nan
10014;BME280;45684;48.358;10.746;2023-08-07T06:42:09;96116.25;;;15.67;nan
10014;BME280;45684;48.358;10.746;2023-08-07T06:44:42;96118.47;;;15.77;nan
10014;BME280;45684;48.358;10.746;2023-08-07T06:47:10;96114.88;;;16.05;nan
10014;BME280;45684;48.358;10.746;2023-08-07T06:49:38;96117.22;;;16.06;nan
10014;BME280;45684;48.358;10.746;2023-08-07T06:52:06;96127.19;;;16.15;nan
10014;BME280;45684;48.358;10.746;2023-08-07T06:54:35;96126.72;;;16.13;nan
10014;BME280;45684;48.358;10.746;2023-08-07T06:57:03;96128.13;;;16.22;nan
10014;BME280;45684;48.358;10.746;2023-08-07T06:59:32;96122.75;;;16.26;nan
10014;BME280;45684;48.358;10.746;2023-08-07T07:02:02;96127.94;;;16.31;nan
10014;BME280;45684;48.358;10.746;2023-08-07T07:04:30;96130.59;;;16.27;nan
10014;BME280;45684;48.358;10.746;2023-08-07T07:06:58;96129.91;;;16.15;nan
10014;BME280;45684;48.358;10.746;2023-08-07T07:09:26;96144.50;;;16.22;nan
10014;BME280;45684;48.358;10.746;2023-08-07T07:11:55;96138.69;;;16.40;nan
10014;BME280;45684;48.358;10.746;2023-08-07T07:14:23;96137.44;;;16.53;nan
10014;BME280;45684;48.358;10.746;2023-08-07T07:16:51;96138.63;;;16.71;nan
10014;BME280;45684;48.358;10.746;2023-08-07T07:19:20;96134.47;;;16.77;nan
10014;BME280;45684;48.358;10.746;2023-08-07T07:21:48;96149.59;;;16.91;nan
10014;BME280;45684;48.358;10.746;2023-08-07T07:24:16;96146.72;;;16.83;nan
10014;BME280;45684;48.358;10.746;2023-08-07T07:26:44;96145.59;;;16.85;nan
10014;BME280;45684;48.358;10.746;2023-08-07T07:29:12;96141.25;;;16.68;nan
10014;BME280;45684;48.358;10.746;2023-08-07T07:31:40;96145.31;;;16.74;nan
10014;BME280;45684;48.358;10.746;2023-08-07T07:34:08;96138.53;;;16.83;nan
10014;BME280;45684;48.358;10.746;2023-08-07T07:36:37;96130.78;;;17.05;nan
10014;BME280;45684;48.358;10.746;2023-08-07T07:39:05;96156.16;;;17.25;nan
10014;BME280;45684;48.358;10.746;2023-08-07T07:41:33;96157.53;;;17.15;nan
10014;BME280;45684;48.358;10.746;2023-08-07T07:44:01;96157.25;;;17.20;nan
10014;BME280;45684;48.358;10.746;2023-08-07T07:46:29;96161.13;;;17.19;nan
10014;BME280;45684;48.358;10.746;2023-08-07T07:48:58;96168.91;;;17.17;nan
10014;BME280;45684;48.358;10.746;2023-08-07T07:51:26;96172.84;;;17.39;nan
10014;BME280;45684;48.358;10.746;2023-08-07T07:53:57;96177.56;;;17.58;nan
10014;BME280;45684;48.358;10.746;2023-08-07T07:56:41;96176.09;;;17.64;nan
10014;BME280;45684;48.358;10.746;2023-08-07T07:59:09;96176.97;;;17.49;nan
10014;BME280;45684;48.358;10.746;2023-08-07T08:01:37;96186.69;;;17.46;nan
10014;BME280;45684;48.358;10.746;2023-08-07T08:04:06;96194.75;;;17.58;nan
10014;BME280;45684;48.358;10.746;2023-08-07T08:06:37;96188.75;;;17.72;nan
10014;BME280;45684;48.358;10.746;2023-08-07T08:09:06;96188.53;;;17.62;nan
10014;BME280;45684;48.358;10.746;2023-08-07T08:11:36;96199.00;;;17.37;nan
10014;BME280;45684;48.358;10.746;2023-08-07T08:14:05;96202.13;;;17.39;nan
10014;BME280;45684;48.358;10.746;2023-08-07T08:16:33;96198.31;;;17.43;nan
10014;BME280;45684;48.358;10.746;2023-08-07T08:19:00;96201.28;;;17.34;nan
10014;BME280;45684;48.358;10.746;2023-08-07T08:21:28;96193.81;;;17.51;nan
10014;BME280;45684;48.358;10.746;2023-08-07T08:23:59;96201.09;;;17.82;nan
10014;BME280;45684;48.358;10.746;2023-08-07T08:26:28;96205.34;;;17.79;nan
10014;BME280;45684;48.358;10.746;2023-08-07T08:28:56;96211.97;;;17.78;nan
10014;BME280;45684;48.358;10.746;2023-08-07T08:31:25;96208.56;;;17.85;nan
10014;BME280;45684;48.358;10.746;2023-08-07T08:33:53;96217.25;;;18.10;nan
10014;BME280;45684;48.358;10.746;2023-08-07T08:36:21;96201.72;;;18.41;nan
10014;BME280;45684;48.358;10.746;2023-08-07T08:38:49;96213.47;;;18.41;nan
10014;BME280;45684;48.358;10.746;2023-08-07T08:41:19;96218.03;;;18.56;nan
10014;BME280;45684;48.358;10.746;2023-08-07T08:43:49;96208.84;;;18.45;nan
10014;BME280;45684;48.358;10.746;2023-08-07T08:46:19;96210.25;;;18.35;nan
10014;BME280;45684;48.358;10.746;2023-08-07T08:48:51;96215.06;;;18.42;nan
10014;BME280;45684;48.358;10.746;2023-08-07T08:51:19;96207.41;;;18.28;nan
10014;BME280;45684;48.358;10.746;2023-08-07T08:53:48;96210.44;;;18.69;nan
10014;BME280;45684;48.358;10.746;2023-08-07T08:56:17;96212.41;;;18.95;nan
10014;BME280;45684;48.358;10.746;2023-08-07T08:58:46;96213.19;;;19.22;nan
10014;BME280;45684;48.358;10.746;2023-08-07T09:01:17;96215.50;;;19.50;nan
10014;BME280;45684;48.358;10.746;2023-08-07T09:03:45;96208.78;;;19.48;nan
10014;BME280;45684;48.358;10.746;2023-08-07T09:06:13;96213.91;;;19.19;nan
10014;BME280;45684;48.358;10.746;2023-08-07T09:08:42;96226.13;;;19.25;nan
10014;BME280;45684;48.358;10.746;2023-08-07T09:11:11;96220.53;;;19.45;nan
10014;BME280;45684;48.358;10.746;2023-08-07T09:13:43;96213.25;;;19.59;nan
10014;BME280;45684;48.358;10.746;2023-08-07T09:16:12;96228.38;;;19.46;nan
10014;BME280;45684;48.358;10.746;2023-08-07T09:18:42;96228.63;;;19.64;nan
10014;BME280;45684;48.358;10.746;2023-08-07T09:21:11;96225.78;;;19.87;nan
10014;BME280;45684;48.358;10.746;2023-08-07T09:23:42;96223.53;;;20.00;nan
10014;BME280;45684;48.358;10.746;2023-08-07T09:26:10;96233.13;;;20.17;nan
10014;BME280;45684;48.358;10.746;2023-08-07T09:28:38;96222.66;;;19.88;nan
10014;BME280;45684;48.358;10.746;2023-08-07T09:31:06;96222.59;;;19.85;nan
10014;BME280;45684;48.358;10.746;2023-08-07T09:33:35;96232.75;;;19.81;nan
10014;BME280;45684;48.358;10.746;2023-08-07T09:36:05;96234.28;;;19.78;nan
10014;BME280;45684;48.358;10.746;2023-08-07T09:38:33;96234.75;;;19.84;nan
10014;BME280;45684;48.358;10.746;2023-08-07T09:41:02;96246.97;;;19.90;nan
10014;BME280;45684;48.358;10.746;2023-08-07T09:43:33;96239.91;;;19.59;nan
10014;BME280;45684;48.358;10.746;2023-08-07T09:46:02;96234.00;;;19.57;nan
10014;BME280;45684;48.358;10.746;2023-08-07T09:48:31;96239.91;;;19.59;nan
10014;BME280;45684;48.358;10.746;2023-08-07T09:51:01;96248.59;;;19.61;nan
10014;BME280;45684;48.358;10.746;2023-08-07T09:53:31;96232.53;;;19.97;nan
10014;BME280;45684;48.358;10.746;2023-08-07T09:56:00;96239.84;;;20.60;nan
10014;BME280;45684;48.358;10.746;2023-08-07T09:58:28;96237.09;;;21.08;nan
10014;BME280;45684;48.358;10.746;2023-08-07T10:00:58;96231.72;;;21.29;nan
10014;BME280;45684;48.358;10.746;2023-08-07T10:03:26;96237.03;;;21.63;nan
10014;BME280;45684;48.358;10.746;2023-08-07T10:05:55;96233.28;;;21.27;nan
10014;BME280;45684;48.358;10.746;2023-08-07T10:08:23;96231.81;;;21.44;nan
10014;BME280;45684;48.358;10.746;2023-08-07T10:10:58;96221.28;;;21.60;nan
10014;BME280;45684;48.358;10.746;2023-08-07T10:13:27;96222.94;;;21.75;nan
10014;BME280;45684;48.358;10.746;2023-08-07T10:16:00;96227.22;;;21.73;nan
10014;BME280;45684;48.358;10.746;2023-08-07T10:18:29;96225.19;;;21.59;nan
10014;BME280;45684;48.358;10.746;2023-08-07T10:20:57;96230.44;;;21.12;nan
10014;BME280;45684;48.358;10.746;2023-08-07T10:23:25;96238.69;;;20.61;nan
10014;BME280;45684;48.358;10.746;2023-08-07T10:25:53;96239.41;;;20.17;nan
10014;BME280;45684;48.358;10.746;2023-08-07T10:28:24;96234.03;;;19.91;nan
10014;BME280;45684;48.358;10.746;2023-08-07T10:30:56;96243.03;;;19.87;nan
10014;BME280;45684;48.358;10.746;2023-08-07T10:33:24;96245.88;;;19.65;nan
10014;BME280;45684;48.358;10.746;2023-08-07T10:35:52;96252.91;;;19.62;nan
10014;BME280;45684;48.358;10.746;2023-08-07T10:38:22;96253.47;;;19.75;nan
10014;BME280;45684;48.358;10.746;2023-08-07T10:40:59;96253.50;;;19.78;nan
10014;BME280;45684;48.358;10.746;2023-08-07T10:43:30;96242.88;;;19.73;nan
10014;BME280;45684;48.358;10.746;2023-08-07T10:46:10;96241.13;;;19.95;nan
10014;BME280;45684;48.358;10.746;2023-08-07T10:48:40;96235.16;;;20.23;nan
10014;BME280;45684;48.358;10.746;2023-08-07T10:51:08;96226.09;;;20.56;nan
10014;BME280;45684;48.358;10.746;2023-08-07T10:53:41;96229.50;;;20.91;nan
10014;BME280;45684;48.358;10.746;2023-08-07T10:56:14;96227.88;;;20.82;nan
10014;BME280;45684;48.358;10.746;2023-08-07T10:58:52;96222.88;;;20.99;nan
10014;BME280;45684;48.358;10.746;2023-08-07T11:01:22;96228.38;;;20.99;nan
10014;BME280;45684;48.358;10.746;2023-08-07T11:03:52;96224.59;;;21.18;nan
10014;BME280;45684;48.358;10.746;2023-08-07T11:06:25;96225.34;;;21.14;nan
10014;BME280;45684;48.358;10.746;2023-08-07T11:08:54;96219.19;;;21.35;nan
10014;BME280;45684;48.358;10.746;2023-08-07T11:11:22;96222.09;;;21.60;nan
10014;BME280;45684;48.358;10.746;2023-08-07T11:14:02;96218.94;;;21.62;nan
10014;BME280;45684;48.358;10.746;2023-08-07T11:16:34;96216.31;;;22.05;nan
10014;BME280;45684;48.358;10.746;2023-08-07T11:19:02;96212.50;;;22.77;nan
10014;BME280;45684;48.358;10.746;2023-08-07T11:21:31;96211.72;;;22.70;nan
10014;BME280;45684;48.358;10.746;2023-08-07T11:24:01;96217.63;;;22.72;nan
10014;BME280;45684;48.358;10.746;2023-08-07T11:26:29;96216.81;;;22.39;nan
10014;BME280;45684;48.358;10.746;2023-08-07T11:28:57;96221.91;;;22.12;nan
10014;BME280;45684;48.358;10.746;2023-08-07T11:31:26;96219.59;;;22.53;nan
10014;BME280;45684;48.358;10.746;2023-08-07T11:33:57;96218.41;;;22.58;nan
10014;BME280;45684;48.358;10.746;2023-08-07T11:36:26;96221.97;;;22.62;nan
10014;BME280;45684;48.358;10.746;2023-08-07T11:38:54;96218.81;;;23.03;nan
10014;BME280;45684;48.358;10.746;2023-08-07T11:41:22;96216.31;;;23.65;nan
10014;BME280;45684;48.358;10.746;2023-08-07T11:43:50;96211.28;;;24.27;nan
10014;BME280;45684;48.358;10.746;2023-08-07T11:46:18;96207.69;;;24.37;nan
10014;BME280;45684;48.358;10.746;2023-08-07T11:48:49;96205.00;;;24.19;nan
10014;BME280;45684;48.358;10.746;2023-08-07T11:51:21;96221.03;;;23.61;nan
10014;BME280;45684;48.358;10.746;2023-08-07T11:53:49;96219.19;;;23.23;nan
10014;BME280;45684;48.358;10.746;2023-08-07T11:56:23;96221.56;;;22.88;nan
10014;BME280;45684;48.358;10.746;2023-08-07T11:58:52;96228.66;;;23.11;nan
10014;BME280;45684;48.358;10.746;2023-08-07T12:01:22;96229.44;;;22.79;nan
10014;BME280;45684;48.358;10.746;2023-08-07T12:03:53;96228.25;;;22.73;nan
10014;BME280;45684;48.358;10.746;2023-08-07T12:06:22;96232.16;;;23.22;nan
10014;BME280;45684;48.358;10.746;2023-08-07T12:08:53;96234.16;;;23.25;nan
10014;BME280;45684;48.358;10.746;2023-08-07T12:11:22;96244.03;;;22.73;nan
10014;BME280;45684;48.358;10.746;2023-08-07T12:13:50;96244.31;;;22.14;nan
10014;BME280;45684;48.358;10.746;2023-08-07T12:16:22;96243.84;;;21.98;nan
10014;BME280;45684;48.358;10.746;2023-08-07T12:18:52;96239.06;;;21.73;nan
10014;BME280;45684;48.358;10.746;2023-08-07T12:21:21;96252.16;;;22.08;nan
10014;BME280;45684;48.358;10.746;2023-08-07T12:23:51;96259.38;;;22.70;nan
10014;BME280;45684;48.358;10.746;2023-08-07T12:26:19;96247.97;;;22.57;nan
10014;BME280;45684;48.358;10.746;2023-08-07T12:28:47;96253.84;;;22.56;nan
10014;BME280;45684;48.358;10.746;2023-08-07T12:31:14;96263.31;;;22.62;nan
10014;BME280;45684;48.358;10.746;2023-08-07T12:33:44;96252.28;;;22.55;nan
10014;BME280;45684;48.358;10.746;2023-08-07T12:36:13;96261.28;;;22.37;nan
10014;BME280;45684;48.358;10.746;2023-08-07T12:38:45;96257.00;;;22.61;nan
10014;BME280;45684;48.358;10.746;2023-08-07T12:41:13;96259.38;;;22.70;nan
10014;BME280;45684;48.358;10.746;2023-08-07T12:43:44;96261.34;;;22.66;nan
10014;BME280;45684;48.358;10.746;2023-08-07T12:46:12;96270.41;;;22.77;nan
10014;BME280;45684;48.358;10.746;2023-08-07T12:48:42;96269.66;;;23.02;nan
10014;BME280;45684;48.358;10.746;2023-08-07T12:51:10;96265.31;;;23.11;nan
10014;BME280;45684;48.358;10.746;2023-08-07T12:53:40;96262.53;;;23.22;nan
10014;BME280;45684;48.358;10.746;2023-08-07T12:56:08;96257.81;;;23.19;nan
10014;BME280;45684;48.358;10.746;2023-08-07T12:58:35;96276.31;;;23.43;nan
10014;BME280;45684;48.358;10.746;2023-08-07T13:01:05;96263.59;;;23.82;nan
10014;BME280;45684;48.358;10.746;2023-08-07T13:03:56;96270.34;;;23.63;nan
10014;BME280;45684;48.358;10.746;2023-08-07T13:06:24;96273.13;;;23.45;nan
10014;BME280;45684;48.358;10.746;2023-08-07T13:08:54;96283.47;;;23.09;nan
10014;BME280;45684;48.358;10.746;2023-08-07T13:11:22;96275.53;;;22.68;nan
10014;BME280;45684;48.358;10.746;2023-08-07T13:13:50;96279.38;;;22.24;nan
10014;BME280;45684;48.358;10.746;2023-08-07T13:16:18;96290.31;;;22.03;nan
10014;BME280;45684;48.358;10.746;2023-08-07T13:18:46;96285.84;;;21.70;nan
10014;BME280;45684;48.358;10.746;2023-08-07T13:21:14;96284.56;;;21.56;nan